createdAt,value
2019-06-10T00:02:31.180Z,98786.27
2019-06-10T00:05:05.645Z,98789.59
2019-06-10T00:07:41.221Z,98782.98
2019-06-10T00:10:15.806Z,98781.34
2019-06-10T00:12:51.725Z,98780.50
2019-06-10T00:15:24.552Z,98768.84
2019-06-10T00:18:18.962Z,98768.31
2019-06-10T00:20:32.847Z,98766.80
2019-06-10T00:23:07.170Z,98775.17
2019-06-10T00:25:41.947Z,98777.19
2019-06-10T00:28:15.201Z,98777.39
2019-06-10T00:30:48.816Z,98773.17
2019-06-10T00:33:22.739Z,98778.86
2019-06-10T00:35:56.273Z,98778.98
2019-06-10T00:38:31.686Z,98780.27
2019-06-10T00:41:09.938Z,98773.19
2019-06-10T00:43:44.257Z,98768.58
2019-06-10T00:46:17.880Z,98767.33
2019-06-10T00:48:51.387Z,98762.92
2019-06-10T00:51:25.161Z,98754.31
2019-06-10T00:53:58.597Z,98755.86
2019-06-10T00:56:31.536Z,98757.38
2019-06-10T00:59:05.850Z,98756.34
2019-06-10T01:01:41.400Z,98758.34
2019-06-10T01:04:16.096Z,98766.56
2019-06-10T01:06:51.364Z,98771.69
2019-06-10T01:09:25.625Z,98771.72
2019-06-10T01:12:01.142Z,98762.11
2019-06-10T01:14:34.352Z,98759.21
2019-06-10T01:17:08.084Z,98763.78
2019-06-10T01:19:41.754Z,98760.47
2019-06-10T01:22:15.875Z,98766.84
2019-06-10T01:24:51.125Z,98767.64
2019-06-10T01:27:24.809Z,98772.36
2019-06-10T01:29:58.464Z,98766.33
2019-06-10T01:32:32.409Z,98768.20
2019-06-10T01:35:06.558Z,98760.36
2019-06-10T01:37:41.350Z,98763.41
2019-06-10T01:40:16.858Z,98759.09
2019-06-10T01:42:51.233Z,98762.09
2019-06-10T01:45:24.864Z,98755.64
2019-06-10T01:47:58.395Z,98757.94
2019-06-10T01:50:31.879Z,98745.53
2019-06-10T01:53:05.510Z,98752.02
2019-06-10T01:55:41.456Z,98756.41
2019-06-10T01:58:16.687Z,98752.20
2019-06-10T02:01:05.666Z,98748.84
2019-06-10T02:03:41.520Z,98749.00
2019-06-10T02:06:18.312Z,98744.16
2019-06-10T02:08:51.788Z,98745.63
2019-06-10T02:11:25.617Z,98748.75
2019-06-10T02:14:00.900Z,98751.02
2019-06-10T02:16:34.090Z,98750.66
2019-06-10T02:19:07.659Z,98752.97
2019-06-10T02:21:41.801Z,98760.30
2019-06-10T02:24:16.419Z,98762.83
2019-06-10T02:26:51.644Z,98770.59
2019-06-10T02:29:25.529Z,98774.91
2019-06-10T02:32:04.373Z,98773.59
2019-06-10T02:34:43.252Z,98776.59
2019-06-10T02:37:15.629Z,98770.88
2019-06-10T02:39:46.704Z,98783.36
2019-06-10T02:42:35.919Z,98782.60
2019-06-10T02:45:17.354Z,98786.64
2019-06-10T02:47:46.114Z,98788.36
2019-06-10T02:50:32.569Z,98780.48
2019-06-10T02:53:04.007Z,98781.84
2019-06-10T02:55:36.328Z,98781.93
2019-06-10T02:58:13.625Z,98775.73
2019-06-10T03:00:48.865Z,98775.73
2019-06-10T03:03:31.670Z,98782.33
2019-06-10T03:05:55.529Z,98784.77
2019-06-10T03:08:31.690Z,98789.85
2019-06-10T03:11:04.157Z,98793.53
2019-06-10T03:13:37.339Z,98797.36
2019-06-10T03:16:17.816Z,98802.55
2019-06-10T03:18:52.578Z,98791.80
2019-06-10T03:21:26.265Z,98794.90
2019-06-10T03:23:59.397Z,98787.11
2019-06-10T03:26:33.233Z,98800.56
2019-06-10T03:29:07.357Z,98799.36
2019-06-10T03:31:47.548Z,98801.57
2019-06-10T03:34:18.197Z,98806.06
2019-06-10T03:36:54.163Z,98811.75
2019-06-10T03:39:28.665Z,98823.67
2019-06-10T03:42:02.853Z,98825.52
2019-06-10T03:44:36.157Z,98833.64
2019-06-10T03:47:12.039Z,98831.96
2019-06-10T03:49:51.902Z,98826.56
2019-06-10T03:52:19.363Z,98822.14
2019-06-10T03:54:52.590Z,98817.52
2019-06-10T03:57:28.223Z,98801.25
2019-06-10T04:00:03.537Z,98795.45
2019-06-10T04:02:43.075Z,98803.17
2019-06-10T04:05:17.473Z,98795.53
2019-06-10T04:07:52.657Z,98780.80
2019-06-10T04:10:28.189Z,98774.31
2019-06-10T04:13:03.020Z,98761.43
2019-06-10T04:15:36.431Z,98748.11
2019-06-10T04:18:12.604Z,98725.48
2019-06-10T04:20:46.219Z,98721.28
2019-06-10T04:23:22.715Z,98733.53
2019-06-10T04:25:56.068Z,98747.33
2019-06-10T04:28:29.942Z,98746.64
2019-06-10T04:31:04.374Z,98734.09
2019-06-10T04:33:38.538Z,98743.02
2019-06-10T04:36:13.573Z,98751.82
2019-06-10T04:38:47.551Z,98764.78
2019-06-10T04:41:23.017Z,98769.80
2019-06-10T04:43:55.921Z,98760.75
2019-06-10T04:46:29.626Z,98750.64
2019-06-10T04:49:03.527Z,98752.28
2019-06-10T04:51:43.448Z,98748.73
2019-06-10T04:54:18.697Z,98742.17
2019-06-10T04:56:53.072Z,98739.94
2019-06-10T04:59:28.737Z,98737.70
2019-06-10T05:02:03.449Z,98739.31
2019-06-10T05:04:38.026Z,98735.48
2019-06-10T05:07:12.709Z,98725.63
2019-06-10T05:09:46.934Z,98727.87
2019-06-10T05:12:23.340Z,98725.12
2019-06-10T05:14:56.630Z,98714.84
2019-06-10T05:17:31.758Z,98715.19
2019-06-10T05:20:05.805Z,98707.27
2019-06-10T05:22:42.203Z,98704.22
2019-06-10T05:25:16.519Z,98715.08
2019-06-10T05:27:52.233Z,98718.64
2019-06-10T05:30:28.199Z,98730.72
2019-06-10T05:33:02.966Z,98735.39
2019-06-10T05:35:37.909Z,98736.47
2019-06-10T05:38:12.854Z,98733.74
2019-06-10T05:40:46.309Z,98730.33
2019-06-10T05:43:21.962Z,98738.55
2019-06-10T05:45:54.710Z,98728.17
2019-06-10T05:48:28.356Z,98731.60
2019-06-10T05:51:06.237Z,98726.21
2019-06-10T05:53:37.457Z,98726.82
2019-06-10T05:56:12.860Z,98733.23
2019-06-10T05:58:45.839Z,98737.61
2019-06-10T06:01:19.743Z,98738.74
2019-06-10T06:04:00.138Z,98734.66
2019-06-10T06:06:35.212Z,98736.89
2019-06-10T06:09:12.496Z,98729.97
2019-06-10T06:11:45.327Z,98726.31
2019-06-10T06:14:19.028Z,98722.39
2019-06-10T06:16:53.520Z,98720.87
2019-06-10T06:19:28.169Z,98725.42
2019-06-10T06:22:02.212Z,98728.23
2019-06-10T06:24:37.893Z,98736.39
2019-06-10T06:27:13.116Z,98743.99
2019-06-10T06:29:48.605Z,98753.34
2019-06-10T06:32:23.629Z,98746.70
2019-06-10T06:34:57.156Z,98743.64
2019-06-10T06:37:34.679Z,98746.82
2019-06-10T06:40:06.319Z,98745.39
2019-06-10T06:42:39.992Z,98741.73
2019-06-10T06:45:13.657Z,98739.45
2019-06-10T06:47:46.713Z,98731.95
2019-06-10T06:50:25.435Z,98721.27
2019-06-10T06:55:33.749Z,98711.65
2019-06-10T06:58:08.030Z,98706.11
2019-06-10T07:01:00.479Z,98713.55
2019-06-10T07:03:19.163Z,98712.95
2019-06-10T07:05:54.167Z,98707.73
2019-06-10T07:08:30.821Z,98708.13
2019-06-10T07:11:06.470Z,98710.66
2019-06-10T07:13:45.551Z,98717.53
2019-06-10T07:16:18.096Z,98725.29
2019-06-10T07:18:54.202Z,98732.48
2019-06-10T07:21:28.488Z,98731.05
2019-06-10T07:24:06.793Z,98737.08
2019-06-10T07:26:49.523Z,98735.41
2019-06-10T07:29:18.371Z,98735.72
2019-06-10T07:31:53.550Z,98725.66
2019-06-10T07:34:28.097Z,98725.17
2019-06-10T07:37:02.658Z,98726.78
2019-06-10T07:39:38.021Z,98730.91
2019-06-10T07:42:13.601Z,98723.83
2019-06-10T07:44:48.006Z,98720.79
2019-06-10T07:47:23.170Z,98714.91
2019-06-10T07:49:57.747Z,98705.33
2019-06-10T07:52:33.177Z,98709.78
2019-06-10T07:55:07.309Z,98702.78
2019-06-10T07:57:43.974Z,98699.50
2019-06-10T08:00:18.975Z,98690.50
2019-06-10T08:02:53.378Z,98681.89
2019-06-10T08:05:28.592Z,98689.51
2019-06-10T08:08:03.827Z,98675.84
2019-06-10T08:10:39.220Z,98674.02
2019-06-10T08:13:14.560Z,98667.43
2019-06-10T08:15:49.834Z,98664.45
2019-06-10T08:18:28.121Z,98662.86
2019-06-10T08:21:03.195Z,98657.31
2019-06-10T08:23:43.581Z,98640.45
2019-06-10T08:26:17.775Z,98623.31
2019-06-10T08:28:53.123Z,98625.32
2019-06-10T08:31:27.220Z,98628.61
2019-06-10T08:34:03.155Z,98629.13
2019-06-10T08:36:39.567Z,98625.86
2019-06-10T08:39:15.947Z,98618.30
2019-06-10T08:41:49.355Z,98623.12
2019-06-10T08:44:24.062Z,98634.16
2019-06-10T08:46:57.922Z,98629.87
2019-06-10T08:49:32.816Z,98618.24
2019-06-10T08:52:06.579Z,98597.22
2019-06-10T08:54:45.652Z,98575.63
2019-06-10T08:57:17.608Z,98569.38
2019-06-10T08:59:53.314Z,98570.64
2019-06-10T09:02:26.639Z,98556.33
2019-06-10T09:05:03.728Z,98545.31
2019-06-10T09:07:39.683Z,98540.36
2019-06-10T09:10:15.015Z,98536.52
2019-06-10T09:12:54.154Z,98535.66
2019-06-10T09:15:26.138Z,98546.08
2019-06-10T09:18:06.814Z,98525.95
2019-06-10T09:20:44.962Z,98522.19
2019-06-10T09:23:24.812Z,98499.00
2019-06-10T09:25:57.586Z,98483.31
2019-06-10T09:28:32.896Z,98474.60
2019-06-10T09:31:10.043Z,98483.52
2019-06-10T09:33:49.868Z,98485.55
2019-06-10T09:36:20.037Z,98476.77
2019-06-10T09:39:04.204Z,98469.77
2019-06-10T09:41:43.204Z,98479.06
2019-06-10T09:44:15.055Z,98478.16
2019-06-10T09:46:55.994Z,98481.25
2019-06-10T09:49:28.870Z,98475.89
2019-06-10T09:52:03.894Z,98481.27
2019-06-10T09:54:38.575Z,98474.39
2019-06-10T09:57:12.715Z,98483.63
2019-06-10T09:59:51.731Z,98474.25
2019-06-10T10:02:23.144Z,98461.14
2019-06-10T10:05:06.998Z,98451.16
2019-06-10T10:07:46.387Z,98451.25
2019-06-10T10:10:24.024Z,98466.32
2019-06-10T10:12:57.832Z,98483.69
2019-06-10T10:15:34.569Z,98471.36
2019-06-10T10:18:07.848Z,98465.67
2019-06-10T10:20:47.840Z,98452.83
2019-06-10T10:23:22.705Z,98444.83
2019-06-10T10:25:57.597Z,98449.09
2019-06-10T10:28:33.524Z,98451.93
2019-06-10T10:31:08.631Z,98447.66
2019-06-10T10:33:44.307Z,98447.78
2019-06-10T10:36:22.639Z,98445.98
2019-06-10T10:38:58.705Z,98440.88
2019-06-10T10:41:35.298Z,98438.20
2019-06-10T10:44:09.740Z,98442.53
2019-06-10T10:46:45.595Z,98439.14
2019-06-10T10:49:22.422Z,98430.03
2019-06-10T10:51:57.128Z,98419.24
2019-06-10T10:54:35.914Z,98411.26
2019-06-10T10:57:08.568Z,98415.33
2019-06-10T10:59:43.538Z,98411.80
2019-06-10T11:02:18.077Z,98404.23
2019-06-10T11:04:55.421Z,98399.25
2019-06-10T11:07:33.338Z,98386.31
2019-06-10T11:10:08.522Z,98386.60
2019-06-10T11:12:46.953Z,98388.09
2019-06-10T11:15:25.890Z,98387.94
2019-06-10T11:18:03.689Z,98386.06
2019-06-10T11:20:36.411Z,98384.07
2019-06-10T11:23:12.342Z,98376.48
2019-06-10T11:25:49.820Z,98372.75
2019-06-10T11:28:25.465Z,98380.31
2019-06-10T11:31:00.398Z,98366.72
2019-06-10T11:33:36.437Z,98366.55
2019-06-10T11:36:13.592Z,98356.67
2019-06-10T11:38:56.746Z,98346.34
2019-06-10T11:41:34.315Z,98337.08
2019-06-10T11:44:12.471Z,98325.30
2019-06-10T11:46:48.617Z,98328.44
2019-06-10T11:49:24.150Z,98329.12
2019-06-10T11:52:03.054Z,98327.72
2019-06-10T11:54:50.629Z,98331.02
2019-06-10T11:57:14.540Z,98327.20
2019-06-10T11:59:59.508Z,98318.09
2019-06-10T12:02:42.367Z,98323.86
2019-06-10T12:05:23.432Z,98315.59
2019-06-10T12:08:05.711Z,98315.25
2019-06-10T12:10:45.501Z,98317.41
2019-06-10T12:13:34.192Z,98314.47
2019-06-10T12:17:15.569Z,98302.27
2019-06-10T12:19:12.719Z,98296.72
2019-06-10T12:22:13.341Z,98301.30
2019-06-10T12:25:30.515Z,98298.53
2019-06-10T12:27:44.979Z,98286.75
2019-06-10T12:30:22.669Z,98287.03
2019-06-10T12:33:05.604Z,98301.64
2019-06-10T12:35:43.981Z,98306.78
2019-06-10T12:38:28.063Z,98304.48
2019-06-10T12:41:09.013Z,98298.80
2019-06-10T12:43:46.095Z,98307.88
2019-06-10T12:46:23.869Z,98302.91
2019-06-10T12:49:02.089Z,98300.19
2019-06-10T12:51:44.038Z,98316.69
2019-06-10T12:54:22.610Z,98302.63
2019-06-10T12:57:06.834Z,98309.82
2019-06-10T12:59:43.119Z,98302.37
2019-06-10T13:02:30.492Z,98300.16
2019-06-10T13:05:05.689Z,98292.60
2019-06-10T13:07:42.901Z,98298.64
2019-06-10T13:10:28.330Z,98296.53
2019-06-10T13:13:07.222Z,98290.63
2019-06-10T13:15:44.997Z,98288.58
2019-06-10T13:18:23.479Z,98290.47
2019-06-10T13:21:01.944Z,98281.14
2019-06-10T13:23:36.236Z,98278.09
2019-06-10T13:26:23.370Z,98271.49
2019-06-10T13:28:58.966Z,98281.94
2019-06-10T13:31:34.275Z,98273.95
2019-06-10T13:34:11.244Z,98259.36
2019-06-10T13:36:47.769Z,98259.26
2019-06-10T13:39:22.463Z,98257.55
2019-06-10T13:41:59.760Z,98253.05
2019-06-10T13:44:37.340Z,98258.88
2019-06-10T13:47:14.666Z,98253.34
2019-06-10T13:49:50.069Z,98254.70
2019-06-10T13:52:24.083Z,98258.23
2019-06-10T13:54:58.765Z,98262.14
2019-06-10T13:57:33.821Z,98262.39
2019-06-10T14:00:11.482Z,98257.77
2019-06-10T14:02:52.266Z,98260.36
2019-06-10T14:05:22.577Z,98257.36
2019-06-10T14:07:57.402Z,98251.01
2019-06-10T14:10:35.660Z,98248.27
2019-06-10T14:13:10.714Z,98257.27
2019-06-10T14:15:47.209Z,98244.94
2019-06-10T14:18:23.182Z,98252.97
2019-06-10T14:20:57.377Z,98248.72
2019-06-10T14:23:33.140Z,98241.59
2019-06-10T14:26:07.986Z,98231.99
2019-06-10T14:28:44.317Z,98228.56
2019-06-10T14:31:38.714Z,98223.70
2019-06-10T14:33:53.667Z,98231.81
2019-06-10T14:36:37.564Z,98225.70
2019-06-10T14:39:13.126Z,98224.41
2019-06-10T14:41:48.130Z,98221.16
2019-06-10T14:44:23.403Z,98226.31
2019-06-10T14:46:58.010Z,98226.27
2019-06-10T14:49:37.928Z,98224.56
2019-06-10T14:52:13.882Z,98222.23
2019-06-10T14:54:53.172Z,98234.02
2019-06-10T14:57:26.085Z,98223.27
2019-06-10T15:00:02.690Z,98219.52
2019-06-10T15:02:35.229Z,98214.03
2019-06-10T15:05:09.368Z,98227.02
2019-06-10T15:07:43.121Z,98217.69
2019-06-10T15:10:17.905Z,98222.14
2019-06-10T15:12:52.872Z,98214.53
2019-06-10T15:15:28.527Z,98219.13
2019-06-10T15:18:03.944Z,98214.22
2019-06-10T15:20:44.375Z,98205.86
2019-06-10T15:23:21.012Z,98207.02
2019-06-10T15:25:57.167Z,98209.47
2019-06-10T15:28:31.058Z,98214.88
2019-06-10T15:31:05.153Z,98221.52
2019-06-10T15:33:39.184Z,98212.07
2019-06-10T15:36:13.599Z,98203.34
2019-06-10T15:38:47.856Z,98204.14
2019-06-10T15:41:24.649Z,98204.85
2019-06-10T15:43:59.582Z,98198.55
2019-06-10T15:46:35.321Z,98186.73
2019-06-10T15:49:14.592Z,98190.27
2019-06-10T15:51:46.776Z,98181.11
2019-06-10T15:54:25.098Z,98187.63
2019-06-10T15:56:58.929Z,98174.63
2019-06-10T15:59:39.172Z,98179.48
2019-06-10T16:02:19.288Z,98187.56
2019-06-10T16:04:52.853Z,98189.70
2019-06-10T16:07:27.861Z,98196.69
2019-06-10T16:10:02.866Z,98207.63
2019-06-10T16:12:43.626Z,98200.48
2019-06-10T16:15:18.158Z,98201.53
2019-06-10T16:17:54.550Z,98191.66
2019-06-10T16:20:32.341Z,98196.45
2019-06-10T16:23:05.842Z,98188.42
2019-06-10T16:25:43.313Z,98182.45
2019-06-10T16:28:18.219Z,98178.64
2019-06-10T16:30:53.722Z,98168.89
2019-06-10T16:33:28.062Z,98172.86
2019-06-10T16:36:06.030Z,98177.36
2019-06-10T16:38:42.322Z,98187.22
2019-06-10T16:41:17.561Z,98197.17
2019-06-10T16:43:52.275Z,98195.36
2019-06-10T16:46:27.018Z,98198.82
2019-06-10T16:49:03.228Z,98193.28
2019-06-10T16:51:38.288Z,98192.14
2019-06-10T16:54:14.512Z,98204.75
2019-06-10T16:56:52.613Z,98204.64
2019-06-10T16:59:27.991Z,98200.78
2019-06-10T17:02:06.956Z,98207.75
2019-06-10T17:04:43.561Z,98211.54
2019-06-10T17:07:18.521Z,98219.41
2019-06-10T17:09:52.901Z,98211.72
2019-06-10T17:12:28.754Z,98201.59
2019-06-10T17:15:04.936Z,98211.42
2019-06-10T17:17:41.910Z,98205.59
2019-06-10T17:20:18.572Z,98209.27
2019-06-10T17:22:53.965Z,98207.92
2019-06-10T17:25:33.859Z,98201.47
2019-06-10T17:28:18.217Z,98193.69
2019-06-10T17:30:47.885Z,98206.59
2019-06-10T17:33:25.744Z,98219.50
2019-06-10T17:36:12.462Z,98226.94
2019-06-10T17:38:46.947Z,98222.52
2019-06-10T17:41:25.476Z,98230.38
2019-06-10T17:44:02.646Z,98239.59
2019-06-10T17:46:52.762Z,98246.39
2019-06-10T17:49:25.460Z,98255.66
2019-06-10T17:52:02.403Z,98243.37
2019-06-10T17:54:36.835Z,98221.18
2019-06-10T17:57:15.020Z,98205.89
2019-06-10T17:59:52.102Z,98194.37
2019-06-10T18:02:31.840Z,98177.32
2019-06-10T18:05:08.770Z,98154.94
2019-06-10T18:07:44.034Z,98159.98
2019-06-10T18:10:19.331Z,98176.92
2019-06-10T18:12:54.301Z,98180.67
2019-06-10T18:15:33.303Z,98198.61
2019-06-10T18:18:08.020Z,98199.15
2019-06-10T18:21:03.188Z,98201.36
2019-06-10T18:23:43.565Z,98226.16
2019-06-10T18:26:17.925Z,98202.56
2019-06-10T18:29:03.860Z,98209.27
2019-06-10T18:31:29.503Z,98212.55
2019-06-10T18:34:04.038Z,98201.81
2019-06-10T18:36:38.225Z,98191.30
2019-06-10T18:39:13.058Z,98202.05
2019-06-10T18:41:48.094Z,98206.62
2019-06-10T18:44:26.013Z,98209.71
2019-06-10T18:46:59.282Z,98204.41
2019-06-10T18:49:35.910Z,98213.76
2019-06-10T18:52:13.805Z,98210.09
2019-06-10T18:54:48.069Z,98204.13
2019-06-10T18:57:25.091Z,98209.78
2019-06-10T19:00:11.934Z,98199.71
2019-06-10T19:03:08.217Z,98201.56
2019-06-10T19:05:28.510Z,98201.00
2019-06-10T19:08:04.082Z,98210.28
2019-06-10T19:10:40.743Z,98209.72
2019-06-10T19:13:19.437Z,98217.20
2019-06-10T19:15:57.099Z,98213.38
2019-06-10T19:18:31.938Z,98203.63
2019-06-10T19:21:08.824Z,98210.25
2019-06-10T19:23:45.378Z,98204.91
2019-06-10T19:26:21.986Z,98198.14
2019-06-10T19:28:57.520Z,98205.04
2019-06-10T19:31:36.265Z,98221.81
2019-06-10T19:34:08.483Z,98228.89
2019-06-10T19:36:48.271Z,98230.64
2019-06-10T19:39:25.490Z,98225.25
2019-06-10T19:42:02.654Z,98216.69
2019-06-10T19:44:37.085Z,98224.42
2019-06-10T19:47:12.951Z,98221.09
2019-06-10T19:49:47.047Z,98209.69
2019-06-10T19:52:23.435Z,98210.05
2019-06-10T19:54:57.853Z,98187.25
2019-06-10T19:57:32.745Z,98185.24
2019-06-10T20:00:12.153Z,98210.70
2019-06-10T20:02:46.994Z,98201.02
2019-06-10T20:05:23.171Z,98213.89
2019-06-10T20:08:03.069Z,98213.87
2019-06-10T20:10:44.510Z,98213.48
2019-06-10T20:13:26.703Z,98213.77
2019-06-10T20:16:14.434Z,98210.81
2019-06-10T20:19:03.161Z,98202.06
2019-06-10T20:21:46.635Z,98221.62
2019-06-10T20:24:34.032Z,98218.89
2019-06-10T20:27:29.908Z,98215.81
2019-06-10T20:30:25.130Z,98208.02
2019-06-10T20:32:59.124Z,98205.14
2019-06-10T20:35:45.638Z,98220.25
2019-06-10T20:38:29.866Z,98208.66
2019-06-10T20:41:27.615Z,98208.86
2019-06-10T20:44:13.104Z,98214.11
2019-06-10T20:46:52.940Z,98211.78
2019-06-10T20:49:37.732Z,98215.19
2019-06-10T20:52:27.324Z,98203.50
2019-06-10T20:55:04.217Z,98196.53
2019-06-10T20:57:55.890Z,98192.38
2019-06-10T21:00:51.026Z,98197.30
2019-06-10T21:03:38.998Z,98204.46
2019-06-10T21:06:13.507Z,98204.64
2019-06-10T21:08:55.702Z,98199.61
2019-06-10T21:11:45.045Z,98199.09
2019-06-10T21:14:42.446Z,98209.69
2019-06-10T21:17:22.757Z,98212.09
2019-06-10T21:20:03.431Z,98212.86
2019-06-10T21:22:47.417Z,98214.98
2019-06-10T21:25:23.032Z,98221.41
2019-06-10T21:28:13.618Z,98223.40
2019-06-10T21:31:11.464Z,98221.95
2019-06-10T21:33:49.069Z,98232.93
2019-06-10T21:36:23.102Z,98235.08
2019-06-10T21:38:57.626Z,98225.59
2019-06-10T21:41:35.578Z,98246.06
2019-06-10T21:44:14.775Z,98234.95
2019-06-10T21:46:50.408Z,98254.41
2019-06-10T21:49:32.093Z,98245.14
2019-06-10T21:52:07.616Z,98255.11
2019-06-10T21:54:44.024Z,98236.08
2019-06-10T21:57:18.401Z,98243.73
2019-06-10T21:59:54.930Z,98240.86
2019-06-10T22:02:28.803Z,98245.14
2019-06-10T22:05:03.451Z,98257.26
2019-06-10T22:07:42.152Z,98246.61
2019-06-10T22:10:15.985Z,98253.34
2019-06-10T22:12:55.673Z,98251.46
2019-06-10T22:15:28.843Z,98245.80
2019-06-10T22:18:04.315Z,98251.14
2019-06-10T22:20:38.717Z,98244.78
2019-06-10T22:23:16.469Z,98248.79
2019-06-10T22:25:53.645Z,98242.54
2019-06-10T22:28:28.424Z,98243.16
2019-06-10T22:31:15.973Z,98228.72
2019-06-10T22:33:38.549Z,98219.08
2019-06-10T22:36:13.718Z,98209.92
2019-06-10T22:38:47.890Z,98226.25
2019-06-10T22:41:22.560Z,98223.64
2019-06-10T22:43:57.567Z,98225.95
2019-06-10T22:46:32.418Z,98221.94
2019-06-10T22:49:06.490Z,98211.80
2019-06-10T22:51:42.908Z,98211.88
2019-06-10T22:54:16.752Z,98207.95
2019-06-10T22:56:54.209Z,98216.07
2019-06-10T22:59:26.228Z,98212.39
2019-06-10T23:02:00.182Z,98211.27
2019-06-10T23:04:35.351Z,98218.19
2019-06-10T23:07:09.592Z,98200.14
2019-06-10T23:09:44.113Z,98208.20
2019-06-10T23:12:18.626Z,98203.42
2019-06-10T23:14:53.624Z,98200.63
2019-06-10T23:17:29.320Z,98210.53
2019-06-10T23:20:03.597Z,98205.64
2019-06-10T23:22:37.647Z,98209.75
2019-06-10T23:25:12.678Z,98208.22
2019-06-10T23:27:46.764Z,98207.98
2019-06-10T23:30:22.417Z,98203.78
2019-06-10T23:32:56.508Z,98208.71
2019-06-10T23:35:32.291Z,98199.61
2019-06-10T23:38:05.889Z,98197.51
2019-06-10T23:40:39.430Z,98221.80
2019-06-10T23:43:13.461Z,98212.45
2019-06-10T23:45:48.018Z,98210.29
2019-06-10T23:48:22.900Z,98209.05
2019-06-10T23:50:57.757Z,98204.38
2019-06-10T23:53:32.865Z,98208.94
2019-06-10T23:56:06.796Z,98212.50
2019-06-10T23:58:40.403Z,98206.30
